createdAt,value
2023-05-25T00:02:08.088Z,9.73
2023-05-25T00:05:10.094Z,9.90
2023-05-25T00:08:11.566Z,8.57
2023-05-25T00:11:13.851Z,9.27
2023-05-25T00:14:17.483Z,9.83
2023-05-25T00:17:26.596Z,9.60
2023-05-25T00:20:29.524Z,9.40
2023-05-25T00:23:39.424Z,9.83
2023-05-25T00:26:30.429Z,10.53
2023-05-25T00:29:37.362Z,9.53
2023-05-25T00:32:45.896Z,9.60
2023-05-25T00:35:51.639Z,10.03
2023-05-25T00:38:53.521Z,9.67
2023-05-25T00:41:59.957Z,9.97
2023-05-25T00:45:07.839Z,11.33
2023-05-25T00:48:19.765Z,9.63
2023-05-25T00:51:33.978Z,10.43
2023-05-25T00:54:45.521Z,10.27
2023-05-25T00:58:00.339Z,10.70
2023-05-25T01:00:56.815Z,10.73
2023-05-25T01:03:55.124Z,10.43
2023-05-25T01:06:52.741Z,10.47
2023-05-25T01:09:50.338Z,13.63
2023-05-25T01:12:41.182Z,10.67
2023-05-25T01:15:34.376Z,10.43
2023-05-25T01:18:23.348Z,10.23
2023-05-25T01:21:23.790Z,11.17
2023-05-25T01:24:23.661Z,10.93
2023-05-25T01:27:23.436Z,12.80
2023-05-25T01:30:18.644Z,11.43
2023-05-25T01:33:11.021Z,10.30
2023-05-25T01:36:02.794Z,11.23
2023-05-25T01:38:54.978Z,11.03
2023-05-25T01:41:47.323Z,10.40
2023-05-25T01:44:47.031Z,10.70
2023-05-25T01:47:48.872Z,11.00
2023-05-25T01:50:44.078Z,10.80
2023-05-25T01:53:54.625Z,10.50
2023-05-25T01:57:05.620Z,11.00
2023-05-25T02:00:00.497Z,10.47
2023-05-25T02:03:03.794Z,10.23
2023-05-25T02:06:07.305Z,10.40
2023-05-25T02:09:10.616Z,10.53
2023-05-25T02:12:05.209Z,11.50
2023-05-25T02:14:56.611Z,10.97
2023-05-25T02:17:52.559Z,11.37
2023-05-25T02:21:03.526Z,10.87
2023-05-25T02:24:07.572Z,11.83
2023-05-25T02:27:21.180Z,11.37
2023-05-25T02:30:21.164Z,11.07
2023-05-25T02:33:21.708Z,10.43
2023-05-25T02:36:12.718Z,10.80
2023-05-25T02:39:13.625Z,10.67
2023-05-25T02:42:08.474Z,11.07
2023-05-25T02:45:19.717Z,10.63
2023-05-25T02:48:34.196Z,11.20
2023-05-25T02:51:46.763Z,11.50
2023-05-25T02:55:01.021Z,10.60
2023-05-25T02:58:16.178Z,10.33
2023-05-25T03:01:25.502Z,10.33
2023-05-25T03:04:27.565Z,9.43
2023-05-25T03:07:34.710Z,10.17
2023-05-25T03:10:32.208Z,9.87
2023-05-25T03:13:31.615Z,10.60
2023-05-25T03:16:36.778Z,9.87
2023-05-25T03:19:39.468Z,10.40
2023-05-25T03:22:37.327Z,9.70
2023-05-25T03:25:37.586Z,9.63
2023-05-25T03:28:40.177Z,10.17
2023-05-25T03:31:46.556Z,10.90
2023-05-25T03:34:48.345Z,10.67
2023-05-25T03:37:46.514Z,10.83
2023-05-25T03:40:53.474Z,12.03
2023-05-25T03:43:59.672Z,11.00
2023-05-25T03:47:06.152Z,11.67
2023-05-25T03:50:14.958Z,11.73
2023-05-25T03:53:18.513Z,11.77
2023-05-25T03:56:19.741Z,10.83
2023-05-25T03:59:23.911Z,12.40
2023-05-25T04:02:25.036Z,11.70
2023-05-25T04:05:33.507Z,12.27
2023-05-25T04:08:40.803Z,12.63
2023-05-25T04:11:49.726Z,13.10
2023-05-25T04:14:55.967Z,13.47
2023-05-25T04:17:55.428Z,12.90
2023-05-25T04:21:02.086Z,13.43
2023-05-25T04:23:55.248Z,12.30
2023-05-25T04:26:54.445Z,13.93
2023-05-25T04:29:56.796Z,13.57
2023-05-25T04:33:02.517Z,14.30
2023-05-25T04:35:59.159Z,14.83
2023-05-25T04:38:55.066Z,14.13
2023-05-25T04:41:47.148Z,13.47
2023-05-25T04:44:42.052Z,15.20
2023-05-25T04:47:42.859Z,15.07
2023-05-25T04:50:32.287Z,14.97
2023-05-25T04:53:37.159Z,15.97
2023-05-25T04:56:29.269Z,15.50
2023-05-25T04:59:18.030Z,15.63
2023-05-25T05:02:09.621Z,15.07
2023-05-25T05:05:03.737Z,15.23
2023-05-25T05:07:54.340Z,14.07
2023-05-25T05:10:44.687Z,13.83
2023-05-25T05:13:38.439Z,14.77
2023-05-25T05:16:34.336Z,13.77
2023-05-25T05:19:33.933Z,13.80
2023-05-25T05:22:34.768Z,13.70
2023-05-25T05:25:25.635Z,14.90
2023-05-25T05:28:21.389Z,14.60
2023-05-25T05:31:19.364Z,14.47
2023-05-25T05:34:17.082Z,13.40
2023-05-25T05:37:16.164Z,14.67
2023-05-25T05:40:18.574Z,14.73
2023-05-25T05:43:17.914Z,15.17
2023-05-25T05:46:17.453Z,15.20
2023-05-25T05:49:18.486Z,15.13
2023-05-25T05:52:18.599Z,16.23
2023-05-25T05:55:23.113Z,15.73
2023-05-25T05:58:23.828Z,15.23
2023-05-25T06:01:16.961Z,15.47
2023-05-25T06:04:09.137Z,15.20
2023-05-25T06:07:08.463Z,15.47
2023-05-25T06:10:04.812Z,15.73
2023-05-25T06:13:00.423Z,16.53
2023-05-25T06:15:57.490Z,15.77
2023-05-25T06:18:55.905Z,15.63
2023-05-25T06:21:51.011Z,15.17
2023-05-25T06:24:51.833Z,16.30
2023-05-25T06:27:45.479Z,15.70
2023-05-25T06:30:42.739Z,14.83
2023-05-25T06:33:34.487Z,14.57
2023-05-25T06:36:34.722Z,14.83
2023-05-25T06:39:30.899Z,14.07
2023-05-25T06:42:20.600Z,15.83
2023-05-25T06:45:19.929Z,14.70
2023-05-25T06:48:18.066Z,14.00
2023-05-25T06:51:08.572Z,14.13
2023-05-25T06:54:06.082Z,13.17
2023-05-25T06:57:03.700Z,12.87
2023-05-25T07:00:02.622Z,13.73
2023-05-25T07:03:01.159Z,13.00
2023-05-25T07:06:03.041Z,12.10
2023-05-25T07:08:57.871Z,12.47
2023-05-25T07:11:53.290Z,12.70
2023-05-25T07:14:53.064Z,12.00
2023-05-25T07:17:52.430Z,11.03
2023-05-25T07:20:48.173Z,12.60
2023-05-25T07:23:42.891Z,12.30
2023-05-25T07:26:43.663Z,13.85
2023-05-25T07:29:36.778Z,11.77
2023-05-25T07:32:36.849Z,11.73
2023-05-25T07:35:38.497Z,11.53
2023-05-25T07:38:36.006Z,10.87
2023-05-25T07:41:38.576Z,11.03
2023-05-25T07:44:33.597Z,10.83
2023-05-25T07:47:31.927Z,12.27
2023-05-25T07:50:32.298Z,10.93
2023-05-25T07:53:27.245Z,10.80
2023-05-25T07:56:25.846Z,11.03
2023-05-25T07:59:31.236Z,11.50
2023-05-25T08:02:32.254Z,10.60
2023-05-25T08:05:27.738Z,9.00
2023-05-25T08:08:23.938Z,10.10
2023-05-25T08:11:21.074Z,9.97
2023-05-25T08:14:16.155Z,10.33
2023-05-25T08:17:16.712Z,10.23
2023-05-25T08:20:14.550Z,10.90
2023-05-25T08:23:11.593Z,10.57
2023-05-25T08:26:24.435Z,10.83
2023-05-25T08:29:27.127Z,10.83
2023-05-25T08:32:33.037Z,10.97
2023-05-25T08:35:34.537Z,10.53
2023-05-25T08:38:33.618Z,10.17
2023-05-25T08:41:31.617Z,10.70
2023-05-25T08:44:32.151Z,9.70
2023-05-25T08:47:30.922Z,9.67
2023-05-25T08:50:32.764Z,10.30
2023-05-25T08:53:32.131Z,9.90
2023-05-25T08:56:38.147Z,9.93
2023-05-25T08:59:56.636Z,10.47
2023-05-25T09:03:01.638Z,9.10
2023-05-25T09:05:56.465Z,9.70
2023-05-25T09:08:55.564Z,9.57
2023-05-25T09:11:55.197Z,8.93
2023-05-25T09:14:50.813Z,10.30
2023-05-25T09:17:46.213Z,9.57
2023-05-25T09:20:48.003Z,8.93
2023-05-25T09:23:50.748Z,8.77
2023-05-25T09:26:49.352Z,9.00
2023-05-25T09:29:52.128Z,9.10
2023-05-25T09:32:55.648Z,7.53
2023-05-25T09:35:57.998Z,8.30
2023-05-25T09:38:55.208Z,7.93
2023-05-25T09:41:49.961Z,8.33
2023-05-25T09:44:49.255Z,9.10
2023-05-25T09:47:49.683Z,8.80
2023-05-25T09:50:52.624Z,8.10
2023-05-25T09:53:52.010Z,7.63
2023-05-25T09:56:50.213Z,7.90
2023-05-25T09:59:47.327Z,7.97
2023-05-25T10:02:46.900Z,7.80
2023-05-25T10:05:46.370Z,8.77
2023-05-25T10:08:50.142Z,8.80
2023-05-25T10:11:47.999Z,8.30
2023-05-25T10:14:47.628Z,7.93
2023-05-25T10:17:48.049Z,7.73
2023-05-25T10:20:42.886Z,7.73
2023-05-25T10:23:43.521Z,8.33
2023-05-25T10:26:48.326Z,8.93
2023-05-25T10:29:49.608Z,8.10
2023-05-25T10:32:49.764Z,8.20
2023-05-25T10:36:02.211Z,7.53
2023-05-25T10:39:04.207Z,7.53
2023-05-25T10:42:06.128Z,7.10
2023-05-25T10:45:07.769Z,7.90
2023-05-25T10:48:03.136Z,7.47
2023-05-25T10:51:00.152Z,8.13
2023-05-25T10:54:05.320Z,8.70
2023-05-25T10:57:26.491Z,7.20
2023-05-25T11:00:22.057Z,7.40
2023-05-25T11:03:16.882Z,7.43
2023-05-25T11:06:13.836Z,6.70
2023-05-25T11:09:08.400Z,7.70
2023-05-25T11:12:09.079Z,7.20
2023-05-25T11:15:26.389Z,8.37
2023-05-25T11:18:19.617Z,7.97
2023-05-25T11:21:27.647Z,6.90
2023-05-25T11:24:22.513Z,7.40
2023-05-25T11:27:17.590Z,8.00
2023-05-25T11:30:14.522Z,7.63
2023-05-25T11:33:12.081Z,7.60
2023-05-25T11:36:09.033Z,7.20
2023-05-25T11:39:06.786Z,7.57
2023-05-25T11:42:07.414Z,7.27
2023-05-25T11:44:57.286Z,7.07
2023-05-25T11:47:45.797Z,8.13
2023-05-25T11:50:35.902Z,7.50
2023-05-25T11:53:24.587Z,7.17
2023-05-25T11:56:20.780Z,8.77
2023-05-25T11:59:16.107Z,7.53
2023-05-25T12:02:05.936Z,7.60
2023-05-25T12:04:55.813Z,7.50
2023-05-25T12:07:47.268Z,8.20
2023-05-25T12:10:50.367Z,8.70
2023-05-25T12:13:42.624Z,7.90
2023-05-25T12:16:32.385Z,7.43
2023-05-25T12:19:21.668Z,7.13
2023-05-25T12:22:10.700Z,7.47
2023-05-25T12:25:01.001Z,6.87
2023-05-25T12:27:50.353Z,7.57
2023-05-25T12:30:38.759Z,7.87
2023-05-25T12:33:27.425Z,7.00
2023-05-25T12:36:16.916Z,7.37
2023-05-25T12:39:05.462Z,7.33
2023-05-25T12:41:57.054Z,7.13
2023-05-25T12:44:47.930Z,7.63
2023-05-25T12:47:37.229Z,6.90
2023-05-25T12:50:25.989Z,6.97
2023-05-25T12:53:15.660Z,6.83
2023-05-25T12:56:09.383Z,6.70
2023-05-25T12:59:16.723Z,7.47
2023-05-25T13:02:09.761Z,7.17
2023-05-25T13:04:58.876Z,7.10
2023-05-25T13:07:47.552Z,7.13
2023-05-25T13:10:39.743Z,7.80
2023-05-25T13:13:28.940Z,6.90
2023-05-25T13:16:23.745Z,6.77
2023-05-25T13:19:17.581Z,6.60
2023-05-25T13:22:08.795Z,7.10
2023-05-25T13:24:57.353Z,7.22
2023-05-25T13:27:49.109Z,6.60
2023-05-25T13:30:43.622Z,6.57
2023-05-25T13:33:33.895Z,6.90
2023-05-25T13:36:22.522Z,7.67
2023-05-25T13:39:13.938Z,8.10
2023-05-25T13:42:02.520Z,8.17
2023-05-25T13:44:50.962Z,7.27
2023-05-25T13:47:39.192Z,7.83
2023-05-25T13:50:29.386Z,7.20
2023-05-25T13:53:17.524Z,7.07
2023-05-25T13:56:06.314Z,7.47
2023-05-25T13:58:55.082Z,7.23
2023-05-25T14:01:43.440Z,6.23
2023-05-25T14:04:31.692Z,7.27
2023-05-25T14:07:21.677Z,7.50
2023-05-25T14:10:11.157Z,7.50
2023-05-25T14:12:59.343Z,7.17
2023-05-25T14:15:48.358Z,6.90
2023-05-25T14:18:36.935Z,6.70
2023-05-25T14:21:25.106Z,6.83
2023-05-25T14:24:15.074Z,7.50
2023-05-25T14:27:03.180Z,6.93
2023-05-25T14:29:52.572Z,8.17
2023-05-25T14:32:40.955Z,7.87
2023-05-25T14:35:29.594Z,6.63
2023-05-25T14:38:17.885Z,7.60
2023-05-25T14:41:07.952Z,8.33
2023-05-25T14:43:56.422Z,7.23
2023-05-25T14:46:44.629Z,7.30
2023-05-25T14:49:33.156Z,7.77
2023-05-25T14:52:21.501Z,7.93
2023-05-25T14:55:10.466Z,7.23
2023-05-25T14:58:00.308Z,7.67
2023-05-25T15:00:49.139Z,6.77
2023-05-25T15:03:37.808Z,8.00
2023-05-25T15:06:26.493Z,7.03
2023-05-25T15:09:15.927Z,8.23
2023-05-25T15:12:04.117Z,8.57
2023-05-25T15:14:53.806Z,7.57
2023-05-25T15:17:42.458Z,7.60
2023-05-25T15:20:30.780Z,7.73
2023-05-25T15:23:19.248Z,7.57
2023-05-25T15:26:08.293Z,7.00
2023-05-25T15:28:56.966Z,7.57
2023-05-25T15:31:47.158Z,6.37
2023-05-25T15:34:36.717Z,7.50
2023-05-25T15:37:24.899Z,6.87
2023-05-25T15:40:14.748Z,6.97
2023-05-25T15:43:02.971Z,6.87
2023-05-25T15:45:51.138Z,6.87
2023-05-25T15:48:41.264Z,6.93
2023-05-25T15:51:29.693Z,6.33
2023-05-25T15:54:17.903Z,6.93
2023-05-25T15:57:06.954Z,7.17
2023-05-25T15:59:59.855Z,6.93
2023-05-25T16:02:49.064Z,6.90
2023-05-25T16:05:38.752Z,6.97
2023-05-25T16:08:27.829Z,7.10
2023-05-25T16:11:16.489Z,6.40
2023-05-25T16:14:04.742Z,6.07
2023-05-25T16:16:53.572Z,6.50
2023-05-25T16:19:42.209Z,6.23
2023-05-25T16:22:31.749Z,6.23
2023-05-25T16:25:20.134Z,6.10
2023-05-25T16:28:19.345Z,6.83
2023-05-25T16:31:10.533Z,6.50
2023-05-25T16:34:08.040Z,6.33
2023-05-25T16:37:05.305Z,6.80
2023-05-25T16:40:03.645Z,6.10
2023-05-25T16:43:00.764Z,6.33
2023-05-25T16:45:53.615Z,5.70
2023-05-25T16:48:50.380Z,6.43
2023-05-25T16:51:43.723Z,6.20
2023-05-25T16:54:39.083Z,7.03
2023-05-25T16:57:36.192Z,6.43
2023-05-25T17:00:33.794Z,6.37
2023-05-25T17:03:32.617Z,6.17
2023-05-25T17:06:28.112Z,6.10
2023-05-25T17:09:22.341Z,6.33
2023-05-25T17:12:17.233Z,6.13
2023-05-25T17:15:18.877Z,6.20
2023-05-25T17:18:12.721Z,6.40
2023-05-25T17:21:06.587Z,6.07
2023-05-25T17:24:02.521Z,6.50
2023-05-25T17:26:57.163Z,6.53
2023-05-25T17:29:52.919Z,7.13
2023-05-25T17:32:48.962Z,6.63
2023-05-25T17:35:46.695Z,6.87
2023-05-25T17:38:41.072Z,7.47
2023-05-25T17:41:37.284Z,7.23
2023-05-25T17:44:33.708Z,7.57
2023-05-25T17:47:25.658Z,7.37
2023-05-25T17:50:20.911Z,7.60
2023-05-25T17:53:14.274Z,8.40
2023-05-25T17:56:06.811Z,8.10
2023-05-25T17:58:57.998Z,8.37
2023-05-25T18:01:48.269Z,8.10
2023-05-25T18:04:40.782Z,7.53
2023-05-25T18:07:35.401Z,7.20
2023-05-25T18:10:32.273Z,7.63
2023-05-25T18:13:27.852Z,8.10
2023-05-25T18:16:26.663Z,8.20
2023-05-25T18:19:18.812Z,7.60
2023-05-25T18:22:08.342Z,8.63
2023-05-25T18:25:06.084Z,8.38
2023-05-25T18:28:01.362Z,8.00
2023-05-25T18:30:55.179Z,7.20
2023-05-25T18:33:47.406Z,7.50
2023-05-25T18:36:43.048Z,8.30
2023-05-25T18:39:37.140Z,8.27
2023-05-25T18:42:31.885Z,7.88
2023-05-25T18:45:25.464Z,7.82
2023-05-25T18:48:20.067Z,7.40
2023-05-25T18:51:18.129Z,7.67
2023-05-25T18:54:11.941Z,6.83
2023-05-25T18:57:06.528Z,6.73
2023-05-25T19:00:01.631Z,6.70
2023-05-25T19:02:59.669Z,6.33
2023-05-25T19:05:56.818Z,7.10
2023-05-25T19:08:54.698Z,6.20
2023-05-25T19:11:46.721Z,6.07
2023-05-25T19:14:43.467Z,5.93
2023-05-25T19:17:44.478Z,6.30
2023-05-25T19:20:38.955Z,5.60
2023-05-25T19:23:29.394Z,6.70
2023-05-25T19:26:19.898Z,5.93
2023-05-25T19:29:11.817Z,6.40
2023-05-25T19:32:07.362Z,6.40
2023-05-25T19:34:59.333Z,6.33
2023-05-25T19:37:52.448Z,6.77
2023-05-25T19:40:46.822Z,6.23
2023-05-25T19:43:36.246Z,6.60
2023-05-25T19:46:26.638Z,6.20
2023-05-25T19:49:29.260Z,5.80
2023-05-25T19:52:22.545Z,7.00
2023-05-25T19:55:11.757Z,6.77
2023-05-25T19:58:03.643Z,6.63
2023-05-25T20:00:52.519Z,7.37
2023-05-25T20:03:41.870Z,6.50
2023-05-25T20:06:30.207Z,6.63
2023-05-25T20:09:20.091Z,6.87
2023-05-25T20:12:08.789Z,7.17
2023-05-25T20:14:57.468Z,7.27
2023-05-25T20:17:46.915Z,6.90
2023-05-25T20:20:36.445Z,7.07
2023-05-25T20:23:24.727Z,7.30
2023-05-25T20:26:14.864Z,7.30
2023-05-25T20:29:03.653Z,7.30
2023-05-25T20:31:53.320Z,8.60
2023-05-25T20:34:42.868Z,8.23
2023-05-25T20:37:35.719Z,7.40
2023-05-25T20:40:29.051Z,7.63
2023-05-25T20:43:24.134Z,7.57
2023-05-25T20:46:12.637Z,7.83
2023-05-25T20:49:04.458Z,7.33
2023-05-25T20:52:00.152Z,6.80
2023-05-25T20:54:51.315Z,7.50
2023-05-25T20:57:40.748Z,7.07
2023-05-25T21:00:30.679Z,7.50
2023-05-25T21:03:19.069Z,7.20
2023-05-25T21:06:21.923Z,7.43
2023-05-25T21:09:14.569Z,7.40
2023-05-25T21:12:18.100Z,7.60
2023-05-25T21:15:26.548Z,7.47
2023-05-25T21:18:37.868Z,6.80
2023-05-25T21:21:34.044Z,6.63
2023-05-25T21:24:22.535Z,7.40
2023-05-25T21:27:10.830Z,7.13
2023-05-25T21:29:59.342Z,7.17
2023-05-25T21:32:48.557Z,7.47
2023-05-25T21:35:40.273Z,7.40
2023-05-25T21:38:28.753Z,7.53
2023-05-25T21:41:22.238Z,7.13
2023-05-25T21:44:13.454Z,7.00
2023-05-25T21:47:02.179Z,7.50
2023-05-25T21:49:50.760Z,7.67
2023-05-25T21:52:42.108Z,6.80
2023-05-25T21:55:30.383Z,7.63
2023-05-25T21:58:23.224Z,7.53
2023-05-25T22:01:12.029Z,7.40
2023-05-25T22:04:01.020Z,8.55
2023-05-25T22:06:49.763Z,7.83
2023-05-25T22:09:39.469Z,7.47
2023-05-25T22:12:28.277Z,7.30
2023-05-25T22:15:17.189Z,6.97
2023-05-25T22:18:06.950Z,7.10
2023-05-25T22:20:55.646Z,7.00
2023-05-25T22:23:46.371Z,6.93
2023-05-25T22:26:37.261Z,7.20
2023-05-25T22:29:25.995Z,7.10
2023-05-25T22:32:14.476Z,7.57
2023-05-25T22:35:03.262Z,7.33
2023-05-25T22:37:52.845Z,6.83
2023-05-25T22:40:47.393Z,7.10
2023-05-25T22:43:37.143Z,7.37
2023-05-25T22:46:25.998Z,7.27
2023-05-25T22:49:14.628Z,7.10
2023-05-25T22:52:03.160Z,7.23
2023-05-25T22:54:52.350Z,7.50
2023-05-25T22:57:40.781Z,7.37
2023-05-25T23:00:30.355Z,7.47
2023-05-25T23:03:18.913Z,7.70
2023-05-25T23:06:07.794Z,7.60
2023-05-25T23:08:56.832Z,7.43
2023-05-25T23:11:45.140Z,7.13
2023-05-25T23:14:36.984Z,7.03
2023-05-25T23:17:34.652Z,7.33
2023-05-25T23:20:23.833Z,7.63
2023-05-25T23:23:14.367Z,7.47
2023-05-25T23:26:04.020Z,7.27
2023-05-25T23:29:05.555Z,7.47
2023-05-25T23:32:10.636Z,7.67
2023-05-25T23:35:02.464Z,7.67
2023-05-25T23:37:52.310Z,7.60
2023-05-25T23:40:41.772Z,7.10
2023-05-25T23:43:30.377Z,7.17
2023-05-25T23:46:20.015Z,7.33
2023-05-25T23:49:19.263Z,8.37
2023-05-25T23:52:11.641Z,6.57
2023-05-25T23:55:00.251Z,7.13
2023-05-25T23:57:50.689Z,7.90
